Date,TemperatureHighF,TemperatureAvgF,TemperatureLowF,DewpointHighF,DewpointAvgF,DewpointLowF,HumidityHigh,HumidityAvg,HumidityLow,PressureMaxIn,PressureMinIn,WindSpeedMaxMPH,WindSpeedAvgMPH,GustSpeedMaxMPH,PrecipitationSumIn
2013-7-1,87,72,60,56,52,47,81,51,26,29.96,29.77,14,4,22,0.05
2013-7-2,85,72,60,54,49,44,65,46,28,30.00,29.73,27,5,29,0.00
2013-7-3,85,70,59,59,54,47,87,60,29,29.91,29.61,14,4,22,0.35
2013-7-4,91,76,59,56,52,44,79,47,20,29.78,29.55,18,3,24,0.00
2013-7-5,91,77,67,61,54,50,80,48,28,29.71,29.49,21,4,25,0.16
2013-7-6,91,73,64,60,56,49,83,59,26,29.79,29.53,22,5,25,0.03
2013-7-7,94,79,65,59,55,49,82,49,23,29.78,29.58,15,4,23,0.02
2013-7-8,93,78,68,61,55,51,74,47,25,29.90,29.66,17,5,26,0.01
2013-7-9,95,78,66,60,57,53,81,52,26,29.93,29.70,26,3,27,0.01
2013-7-10,93,81,70,60,54,51,60,42,25,29.85,29.65,20,4,26,0.00
2013-7-11,87,76,68,62,57,51,75,53,29,29.92,29.64,17,5,21,0.19
2013-7-12,89,77,67,60,56,53,71,50,31,29.78,29.64,17,4,28,0.00
2013-7-13,91,79,69,63,56,52,63,47,28,29.80,29.64,20,4,27,0.15
2013-7-14,95,78,66,62,56,50,84,51,22,29.83,29.53,18,4,26,0.15
2013-7-15,74,68,65,62,57,50,87,67,49,29.92,29.69,20,5,23,0.00
2013-7-16,81,70,62,52,49,46,68,48,31,29.99,29.82,19,4,23,0.00
2013-7-17,80,70,61,54,51,48,76,54,34,30.08,29.91,16,4,17,0.00
2013-7-18,84,73,61,55,54,51,75,53,36,30.02,29.79,15,4,17,0.00
2013-7-19,87,73,65,61,57,54,79,59,37,29.89,29.69,20,4,23,0.06
2013-7-20,86,73,64,60,58,53,85,61,37,29.83,29.60,19,5,24,0.08
2013-7-21,90,76,66,59,56,48,72,53,29,29.80,29.59,17,3,24,0.00
2013-7-22,93,80,66,57,53,47,64,42,23,29.77,29.55,19,3,19,0.00
2013-7-23,96,80,68,56,52,46,60,40,21,29.72,29.56,23,3,27,0.00
2013-7-24,90,74,65,62,54,48,80,52,29,29.91,29.65,21,3,29,0.04
2013-7-25,84,73,63,61,58,56,81,61,44,29.96,29.75,19,4,22,0.00
2013-7-26,88,71,59,61,58,54,91,67,38,30.13,29.81,29,6,38,0.90
2013-7-27,83,72,60,60,57,52,89,62,36,30.10,29.73,15,4,18,0.01
2013-7-28,86,74,65,62,58,52,83,60,31,29.75,29.59,19,4,25,0.00
2013-7-29,90,77,63,59,53,47,84,47,24,29.83,29.69,19,4,23,0.00
2013-7-30,92,80,65,51,48,43,58,35,20,29.95,29.77,13,2,15,0.00
2013-7-31,95,82,68,52,48,43,44,32,20,29.93,29.74,18,3,23,0.00